Time;durP1;ratioP1;P1;durP2;ratioP2;P2;SDS_P1;SDS_P2;PMS_P1;PMS_P2;Temp;Humidity;BMP_temperature;BMP_pressure;BME280_temperature;BME280_humidity;BME280_pressure;Samples;Min_cycle;Max_cycle;Signal;HPM_P1;HPM_P2
2024/03/09 00:00:16;;;;;;;1.38;0.80;;;;;;;;;;5099063;28;20384;-68
2024/03/09 00:02:42;;;;;;;1.90;0.82;;;;;;;;;;5101849;28;20019;-69
2024/03/09 00:05:07;;;;;;;2.00;0.70;;;;;;;;;;5101857;28;20023;-67
2024/03/09 00:07:32;;;;;;;1.85;0.57;;;;;;;;;;5098121;28;20023;-67
2024/03/09 00:09:58;;;;;;;2.50;0.60;;;;;;;;;;5106181;28;20366;-69
2024/03/09 00:12:23;;;;;;;1.30;0.60;;;;;;;;;;5093089;28;20020;-68
2024/03/09 00:14:49;;;;;;;2.25;0.60;;;;;;;;;;5096706;28;20031;-68
2024/03/09 00:17:16;;;;;;;2.92;0.70;;;;;;;;;;5112800;28;20140;-68
2024/03/09 00:19:42;;;;;;;2.35;0.80;;;;;;;;;;5101341;28;20101;-67
2024/03/09 00:22:08;;;;;;;1.90;0.70;;;;;;;;;;5105310;28;20108;-68
2024/03/09 00:24:33;;;;;;;1.60;1.00;;;;;;;;;;5096748;28;20050;-67
2024/03/09 00:26:59;;;;;;;1.20;0.60;;;;;;;;;;5092076;28;20030;-68
2024/03/09 00:29:25;;;;;;;2.50;0.75;;;;;;;;;;5094308;28;20439;-67
2024/03/09 00:31:51;;;;;;;2.90;0.70;;;;;;;;;;5102803;28;20027;-68
2024/03/09 00:34:19;;;;;;;1.17;0.80;;;;;;;;;;5075784;28;20026;-68
2024/03/09 00:36:45;;;;;;;1.10;0.57;;;;;;;;;;5112725;28;20023;-68
2024/03/09 00:39:11;;;;;;;1.85;0.90;;;;;;;;;;5097129;28;20024;-71
2024/03/09 00:41:42;;;;;;;1.27;0.60;;;;;;;;;;5108542;28;20051;-71
2024/03/09 00:44:09;;;;;;;2.72;0.75;;;;;;;;;;5101885;28;20026;-70
2024/03/09 00:46:36;;;;;;;1.23;0.40;;;;;;;;;;5116312;28;20483;-71
2024/03/09 00:49:02;;;;;;;1.48;0.60;;;;;;;;;;5113677;28;20019;-70
2024/03/09 00:51:30;;;;;;;1.75;0.82;;;;;;;;;;5102937;28;20063;-70
2024/03/09 00:53:56;;;;;;;1.92;0.70;;;;;;;;;;5108470;28;20064;-69
2024/03/09 00:56:21;;;;;;;1.63;0.60;;;;;;;;;;5108145;28;20015;-71
2024/03/09 00:58:47;;;;;;;1.23;0.75;;;;;;;;;;5105990;28;20023;-70
2024/03/09 01:01:12;;;;;;;1.95;0.75;;;;;;;;;;5112879;28;20096;-69
2024/03/09 01:03:38;;;;;;;2.95;0.65;;;;;;;;;;5098064;28;20035;-71
2024/03/09 01:06:05;;;;;;;2.17;0.65;;;;;;;;;;5107253;28;20034;-70
2024/03/09 01:08:31;;;;;;;2.20;0.85;;;;;;;;;;5106043;28;20438;-70
2024/03/09 01:10:56;;;;;;;2.20;0.80;;;;;;;;;;5106774;28;20031;-69
2024/03/09 01:13:22;;;;;;;3.92;0.85;;;;;;;;;;5111193;28;20019;-71
2024/03/09 01:15:49;;;;;;;3.28;1.48;;;;;;;;;;5100322;28;20028;-70
2024/03/09 01:18:17;;;;;;;2.50;0.95;;;;;;;;;;5101675;28;20061;-70
2024/03/09 01:20:42;;;;;;;2.15;1.00;;;;;;;;;;5102810;28;20044;-68
2024/03/09 01:23:08;;;;;;;5.55;0.90;;;;;;;;;;5100707;28;20069;-68
2024/03/09 01:25:33;;;;;;;2.47;0.55;;;;;;;;;;5105633;28;20500;-68
2024/03/09 01:27:59;;;;;;;1.73;0.55;;;;;;;;;;5096293;28;20445;-68
2024/03/09 01:30:24;;;;;;;3.03;0.60;;;;;;;;;;5096075;28;20161;-68
2024/03/09 01:32:50;;;;;;;2.65;0.60;;;;;;;;;;5097953;28;20023;-69
2024/03/09 01:35:15;;;;;;;0.98;0.50;;;;;;;;;;5105564;28;20027;-69
2024/03/09 01:37:41;;;;;;;2.10;0.77;;;;;;;;;;5095994;28;20285;-69
2024/03/09 01:40:07;;;;;;;1.58;0.40;;;;;;;;;;5112972;28;20058;-70
2024/03/09 01:42:32;;;;;;;2.03;0.60;;;;;;;;;;5113784;28;20095;-69
2024/03/09 01:44:58;;;;;;;3.05;0.60;;;;;;;;;;5106461;28;20041;-67
2024/03/09 01:47:25;;;;;;;1.42;0.75;;;;;;;;;;5094957;28;20028;-67
2024/03/09 01:49:51;;;;;;;1.08;0.52;;;;;;;;;;5102678;28;20023;-69
2024/03/09 01:52:17;;;;;;;2.55;0.70;;;;;;;;;;5113837;28;20355;-70
2024/03/09 01:54:43;;;;;;;2.13;0.60;;;;;;;;;;5099187;28;20032;-71
2024/03/09 01:57:09;;;;;;;6.15;0.80;;;;;;;;;;5106897;28;20105;-70
2024/03/09 01:59:34;;;;;;;2.90;0.65;;;;;;;;;;5102811;28;20016;-70
2024/03/09 02:02:01;;;;;;;1.63;0.77;;;;;;;;;;5106553;28;20027;-70
2024/03/09 02:04:28;;;;;;;1.67;0.77;;;;;;;;;;5098641;28;20119;-71
2024/03/09 02:06:54;;;;;;;1.33;0.47;;;;;;;;;;5114657;28;20102;-68
2024/03/09 02:09:19;;;;;;;3.17;0.70;;;;;;;;;;5101847;28;20099;-69
2024/03/09 02:11:47;;;;;;;2.17;0.70;;;;;;;;;;5110128;28;20024;-70
2024/03/09 02:14:13;;;;;;;1.17;0.60;;;;;;;;;;5108955;28;20096;-71
2024/03/09 02:16:41;;;;;;;3.92;0.70;;;;;;;;;;5096581;28;20028;-71
2024/03/09 02:19:13;;;;;;;5.30;0.60;;;;;;;;;;5102759;28;20043;-71
2024/03/09 02:21:39;;;;;;;0.68;0.43;;;;;;;;;;5099263;28;20044;-71
2024/03/09 02:24:05;;;;;;;2.25;0.50;;;;;;;;;;5093981;28;20081;-71
2024/03/09 02:26:31;;;;;;;1.67;0.40;;;;;;;;;;5101505;28;20498;-72
2024/03/09 02:28:57;;;;;;;3.42;0.43;;;;;;;;;;5096844;28;20024;-71
2024/03/09 02:31:23;;;;;;;1.10;0.40;;;;;;;;;;5112868;28;20076;-70
2024/03/09 02:33:51;;;;;;;2.75;0.50;;;;;;;;;;5112114;28;20061;-67
2024/03/09 02:36:27;;;;;;;0.95;0.38;;;;;;;;;;5094353;28;20086;-68
2024/03/09 02:38:53;;;;;;;1.70;0.43;;;;;;;;;;5095594;28;20031;-69
2024/03/09 02:41:19;;;;;;;1.30;0.32;;;;;;;;;;5083678;28;20029;-69
2024/03/09 02:43:45;;;;;;;1.02;0.40;;;;;;;;;;5088946;28;20257;-68
2024/03/09 02:46:11;;;;;;;2.90;0.68;;;;;;;;;;5103109;28;20426;-67
2024/03/09 02:48:36;;;;;;;2.05;0.50;;;;;;;;;;5094311;28;20038;-70
2024/03/09 02:51:02;;;;;;;0.88;0.45;;;;;;;;;;5110943;28;20028;-67
2024/03/09 02:53:27;;;;;;;1.73;0.47;;;;;;;;;;5110805;28;20044;-68
2024/03/09 02:55:53;;;;;;;1.98;0.47;;;;;;;;;;5097704;28;20028;-68
2024/03/09 02:58:18;;;;;;;1.10;0.40;;;;;;;;;;5105372;28;20124;-68
2024/03/09 03:00:45;;;;;;;2.65;0.80;;;;;;;;;;5098050;28;20150;-68
2024/03/09 03:05:55;;;;;;;2.03;0.80;;;;;;;;;;5100832;28;20030;-72
2024/03/09 03:08:21;;;;;;;2.25;0.80;;;;;;;;;;5112315;28;20020;-70
2024/03/09 03:10:46;;;;;;;1.02;0.50;;;;;;;;;;5096703;28;20036;-70
2024/03/09 03:13:14;;;;;;;2.05;0.75;;;;;;;;;;5103917;28;20067;-70
2024/03/09 03:15:39;;;;;;;3.42;0.80;;;;;;;;;;5104115;28;20058;-70
2024/03/09 03:18:07;;;;;;;1.25;0.82;;;;;;;;;;5113219;28;20051;-70
2024/03/09 03:20:33;;;;;;;1.60;0.75;;;;;;;;;;5098326;28;20042;-71
2024/03/09 03:22:59;;;;;;;3.13;0.70;;;;;;;;;;5108158;28;20094;-69
2024/03/09 03:25:25;;;;;;;1.30;0.77;;;;;;;;;;5098379;28;20081;-71
2024/03/09 03:27:51;;;;;;;2.15;0.60;;;;;;;;;;5099796;28;20017;-71
2024/03/09 03:30:19;;;;;;;1.25;0.70;;;;;;;;;;5105515;28;20788;-69
2024/03/09 03:32:44;;;;;;;2.05;0.93;;;;;;;;;;5100481;28;20051;-70
2024/03/09 03:35:10;;;;;;;3.92;0.90;;;;;;;;;;5104764;28;20446;-70
2024/03/09 03:37:36;;;;;;;2.60;0.77;;;;;;;;;;5107572;28;20031;-70
2024/03/09 03:40:01;;;;;;;1.27;0.80;;;;;;;;;;5101008;28;20028;-70
2024/03/09 03:42:27;;;;;;;1.27;0.70;;;;;;;;;;5108101;28;20092;-70
2024/03/09 03:44:52;;;;;;;1.08;0.65;;;;;;;;;;5102633;28;20038;-68
2024/03/09 03:47:18;;;;;;;3.42;1.00;;;;;;;;;;5092552;28;20728;-68
2024/03/09 03:49:46;;;;;;;1.63;0.85;;;;;;;;;;5095078;28;20103;-68
2024/03/09 03:52:14;;;;;;;2.15;0.80;;;;;;;;;;5092929;28;20089;-67
2024/03/09 03:54:39;;;;;;;3.15;1.00;;;;;;;;;;5098656;28;20057;-67
2024/03/09 03:57:05;;;;;;;3.58;0.95;;;;;;;;;;5100665;28;20350;-68
2024/03/09 03:59:30;;;;;;;1.65;0.90;;;;;;;;;;5105039;28;20023;-67
2024/03/09 04:01:56;;;;;;;1.63;0.90;;;;;;;;;;5103591;28;20354;-68
2024/03/09 04:04:21;;;;;;;2.33;0.98;;;;;;;;;;5101205;28;20434;-70
2024/03/09 04:06:47;;;;;;;4.57;1.15;;;;;;;;;;5112393;28;20102;-70
2024/03/09 04:09:15;;;;;;;3.47;1.25;;;;;;;;;;5109905;28;20030;-70
2024/03/09 04:11:41;;;;;;;3.13;0.93;;;;;;;;;;5099194;28;20545;-70
2024/03/09 04:14:06;;;;;;;2.65;1.00;;;;;;;;;;5095990;28;20027;-68
2024/03/09 04:16:33;;;;;;;4.00;1.10;;;;;;;;;;5092764;28;20022;-68
2024/03/09 04:18:59;;;;;;;4.63;1.20;;;;;;;;;;5103551;28;20039;-68
2024/03/09 04:21:24;;;;;;;2.67;1.00;;;;;;;;;;5096575;28;20400;-70
2024/03/09 04:23:50;;;;;;;2.10;1.10;;;;;;;;;;5096393;28;20108;-68
2024/03/09 04:26:15;;;;;;;8.00;1.30;;;;;;;;;;5112410;28;20149;-71
2024/03/09 04:28:43;;;;;;;4.72;1.23;;;;;;;;;;5109635;28;20039;-71
2024/03/09 04:31:09;;;;;;;3.95;1.33;;;;;;;;;;5080417;28;20335;-69
2024/03/09 04:33:35;;;;;;;2.50;0.93;;;;;;;;;;5104041;28;20058;-67
2024/03/09 04:36:00;;;;;;;2.78;1.40;;;;;;;;;;5104826;28;20054;-69
2024/03/09 04:38:26;;;;;;;4.15;1.50;;;;;;;;;;5110188;28;20081;-69
2024/03/09 04:40:51;;;;;;;3.50;1.45;;;;;;;;;;5092305;28;20097;-70
2024/03/09 04:43:17;;;;;;;3.13;1.67;;;;;;;;;;5092648;28;20151;-70
2024/03/09 04:45:43;;;;;;;2.20;1.25;;;;;;;;;;5091558;28;20023;-68
2024/03/09 04:48:13;;;;;;;2.80;2.00;;;;;;;;;;5095613;28;20016;-68
2024/03/09 04:50:40;;;;;;;3.13;2.08;;;;;;;;;;5090781;28;20386;-69
2024/03/09 04:53:06;;;;;;;5.13;2.30;;;;;;;;;;5091662;28;20048;-68
2024/03/09 04:55:32;;;;;;;5.05;2.33;;;;;;;;;;5094732;28;20076;-67
2024/03/09 04:57:58;;;;;;;4.70;2.10;;;;;;;;;;5092851;28;20027;-69
2024/03/09 05:00:26;;;;;;;6.18;3.45;;;;;;;;;;5106269;28;20032;-68
2024/03/09 05:02:51;;;;;;;4.65;2.78;;;;;;;;;;5078586;28;20021;-68
2024/03/09 05:05:18;;;;;;;4.78;2.30;;;;;;;;;;5107202;28;20028;-70
2024/03/09 05:07:47;;;;;;;4.53;2.10;;;;;;;;;;5111780;28;20027;-68
2024/03/09 05:10:17;;;;;;;5.78;2.00;;;;;;;;;;5110601;28;20353;-69
2024/03/09 05:12:44;;;;;;;3.42;2.15;;;;;;;;;;5110258;28;20023;-72
2024/03/09 05:15:11;;;;;;;5.00;2.13;;;;;;;;;;5054674;28;20025;-71
2024/03/09 05:17:37;;;;;;;3.70;1.90;;;;;;;;;;5065687;28;20243;-70
2024/03/09 05:20:11;;;;;;;3.72;1.48;;;;;;;;;;5047197;28;20190;-71
2024/03/09 05:22:37;;;;;;;2.45;1.60;;;;;;;;;;5053510;28;20112;-71
2024/03/09 05:25:04;;;;;;;3.38;1.77;;;;;;;;;;5031249;28;20029;-71
2024/03/09 05:27:29;;;;;;;4.10;1.60;;;;;;;;;;5037633;28;20035;-72
2024/03/09 05:29:55;;;;;;;3.50;1.40;;;;;;;;;;5054666;28;20120;-72
2024/03/09 05:32:22;;;;;;;5.30;1.60;;;;;;;;;;5040176;28;20466;-61
2024/03/09 05:34:47;;;;;;;5.47;1.48;;;;;;;;;;5045057;28;20552;-65
2024/03/09 05:37:13;;;;;;;1.83;1.38;;;;;;;;;;5044250;28;20028;-65
2024/03/09 05:39:38;;;;;;;1.75;1.15;;;;;;;;;;5060308;28;20040;-65
2024/03/09 05:42:04;;;;;;;5.20;1.27;;;;;;;;;;5037185;28;20025;-64
2024/03/09 05:44:32;;;;;;;4.13;1.20;;;;;;;;;;5064504;28;20409;-65
2024/03/09 05:46:59;;;;;;;3.50;1.42;;;;;;;;;;5109424;28;20039;-64
2024/03/09 05:49:26;;;;;;;3.10;1.58;;;;;;;;;;5116041;28;20683;-63
2024/03/09 05:51:52;;;;;;;3.58;1.70;;;;;;;;;;5114304;28;20052;-64
2024/03/09 05:54:17;;;;;;;5.40;1.45;;;;;;;;;;5107594;28;20599;-70
2024/03/09 05:56:43;;;;;;;3.80;1.50;;;;;;;;;;5077426;28;20465;-72
2024/03/09 05:59:08;;;;;;;5.43;1.65;;;;;;;;;;5088765;28;20072;-70
2024/03/09 06:01:34;;;;;;;2.97;1.20;;;;;;;;;;5115196;28;20031;-66
2024/03/09 06:04:00;;;;;;;4.43;1.15;;;;;;;;;;5114138;28;20082;-73
2024/03/09 06:06:25;;;;;;;4.85;1.33;;;;;;;;;;5115580;28;20034;-64
2024/03/09 06:08:51;;;;;;;3.47;1.33;;;;;;;;;;5114702;28;20016;-70
2024/03/09 06:11:16;;;;;;;6.90;1.52;;;;;;;;;;5115124;28;20019;-69
2024/03/09 06:13:41;;;;;;;3.22;1.55;;;;;;;;;;5104485;28;20027;-69
2024/03/09 06:16:07;;;;;;;4.82;1.33;;;;;;;;;;5095233;28;20438;-68
2024/03/09 06:18:32;;;;;;;5.03;1.20;;;;;;;;;;5096108;28;20020;-69
2024/03/09 06:20:57;;;;;;;7.63;1.40;;;;;;;;;;5093780;28;20070;-69
2024/03/09 06:23:23;;;;;;;3.83;1.77;;;;;;;;;;5076804;28;20043;-71
2024/03/09 06:25:48;;;;;;;5.30;1.60;;;;;;;;;;5093810;28;20349;-70
2024/03/09 06:28:14;;;;;;;3.00;0.80;;;;;;;;;;5102638;28;20319;-70
2024/03/09 06:30:41;;;;;;;5.28;1.00;;;;;;;;;;5114867;28;20027;-69
2024/03/09 06:33:06;;;;;;;1.80;1.02;;;;;;;;;;5113853;28;20085;-71
2024/03/09 06:35:32;;;;;;;3.65;1.40;;;;;;;;;;5097059;28;20028;-70
2024/03/09 06:38:10;;;;;;;3.90;1.75;;;;;;;;;;5115161;28;20400;-71
2024/03/09 06:40:37;;;;;;;5.13;1.70;;;;;;;;;;5112903;28;20426;-71
2024/03/09 06:43:06;;;;;;;6.50;2.90;;;;;;;;;;5108733;28;20027;-71
2024/03/09 06:45:32;;;;;;;4.15;1.75;;;;;;;;;;5114614;28;20019;-69
2024/03/09 06:47:58;;;;;;;8.60;1.70;;;;;;;;;;5110153;28;20622;-70
2024/03/09 06:50:23;;;;;;;3.50;1.33;;;;;;;;;;5101170;28;20400;-70
2024/03/09 06:52:49;;;;;;;4.03;1.10;;;;;;;;;;5093647;28;20043;-72
2024/03/09 06:55:15;;;;;;;3.67;1.20;;;;;;;;;;5093536;28;20035;-70
2024/03/09 06:57:41;;;;;;;4.15;1.30;;;;;;;;;;5097312;28;20020;-71
2024/03/09 07:00:13;;;;;;;8.85;1.35;;;;;;;;;;5092938;28;20399;-70
2024/03/09 07:02:42;;;;;;;7.65;2.05;;;;;;;;;;5093938;28;20024;-69
2024/03/09 07:05:12;;;;;;;7.25;1.73;;;;;;;;;;5094309;28;20044;-68
2024/03/09 07:07:38;;;;;;;2.80;1.50;;;;;;;;;;5095068;28;20036;-70
2024/03/09 07:10:07;;;;;;;5.97;2.40;;;;;;;;;;5108306;28;20103;-70
2024/03/09 07:12:37;;;;;;;11.52;2.60;;;;;;;;;;5093839;28;20362;-69
2024/03/09 07:15:03;;;;;;;6.13;1.80;;;;;;;;;;5091826;28;20026;-70
2024/03/09 07:17:29;;;;;;;4.35;1.15;;;;;;;;;;5091487;28;20964;-70
2024/03/09 07:19:54;;;;;;;2.85;0.98;;;;;;;;;;5093820;28;20067;-70
2024/03/09 07:22:21;;;;;;;2.17;0.90;;;;;;;;;;5093374;28;20073;-70
2024/03/09 07:24:48;;;;;;;7.00;1.25;;;;;;;;;;5102647;28;20034;-70
2024/03/09 07:27:14;;;;;;;15.27;1.48;;;;;;;;;;5112460;28;20358;-68
2024/03/09 07:29:41;;;;;;;9.50;1.35;;;;;;;;;;5094171;28;20028;-69
2024/03/09 07:32:06;;;;;;;2.88;0.90;;;;;;;;;;5092384;28;20119;-69
2024/03/09 07:34:33;;;;;;;7.82;1.42;;;;;;;;;;5075611;28;20423;-69
2024/03/09 07:36:59;;;;;;;6.03;2.72;;;;;;;;;;5092637;28;20042;-70
2024/03/09 07:39:24;;;;;;;4.13;2.25;;;;;;;;;;5098922;28;20091;-69
2024/03/09 07:41:49;;;;;;;6.63;2.00;;;;;;;;;;5113360;28;20043;-70
2024/03/09 07:44:15;;;;;;;4.75;3.08;;;;;;;;;;5112939;28;20030;-69
2024/03/09 07:46:40;;;;;;;4.47;2.42;;;;;;;;;;5113361;28;20446;-69
2024/03/09 07:49:07;;;;;;;7.43;3.42;;;;;;;;;;5096606;28;20028;-68
2024/03/09 07:51:35;;;;;;;3.20;1.88;;;;;;;;;;5092672;28;20165;-72
2024/03/09 07:54:01;;;;;;;3.63;2.17;;;;;;;;;;5099359;28;20043;-66
2024/03/09 07:56:26;;;;;;;4.30;1.70;;;;;;;;;;5112262;28;20035;-70
2024/03/09 07:58:52;;;;;;;3.80;1.90;;;;;;;;;;5113012;28;20114;-72
2024/03/09 08:01:18;;;;;;;1.48;1.20;;;;;;;;;;5112574;28;20138;-72
2024/03/09 08:03:45;;;;;;;4.05;1.25;;;;;;;;;;5095740;28;20361;-74
2024/03/09 08:06:10;;;;;;;1.30;1.20;;;;;;;;;;5113516;28;20102;-73
2024/03/09 08:08:36;;;;;;;6.05;1.73;;;;;;;;;;5100103;28;20096;-72
2024/03/09 08:11:01;;;;;;;3.22;1.70;;;;;;;;;;5091902;28;20020;-72
2024/03/09 08:13:28;;;;;;;6.05;1.50;;;;;;;;;;5093381;28;20024;-73
2024/03/09 08:15:54;;;;;;;3.88;1.30;;;;;;;;;;5092826;28;20024;-70
2024/03/09 08:18:21;;;;;;;7.70;1.48;;;;;;;;;;5092302;28;20012;-72
2024/03/09 08:20:46;;;;;;;3.65;1.55;;;;;;;;;;5092444;28;20038;-70
2024/03/09 08:23:12;;;;;;;4.03;1.80;;;;;;;;;;5103077;28;20024;-72
2024/03/09 08:25:38;;;;;;;7.15;1.85;;;;;;;;;;5095164;28;20024;-70
2024/03/09 08:28:03;;;;;;;5.18;1.40;;;;;;;;;;5103033;28;20376;-71
2024/03/09 08:30:31;;;;;;;13.88;2.63;;;;;;;;;;5093051;28;20024;-74
2024/03/09 08:32:59;;;;;;;14.57;2.50;;;;;;;;;;5092269;28;20054;-71
2024/03/09 08:35:27;;;;;;;5.70;1.98;;;;;;;;;;5092952;28;20118;-63
2024/03/09 08:37:53;;;;;;;3.85;1.55;;;;;;;;;;5101400;28;20469;-70
2024/03/09 08:40:19;;;;;;;9.40;1.40;;;;;;;;;;5112443;28;20038;-71
2024/03/09 08:42:51;;;;;;;3.78;1.13;;;;;;;;;;5096447;28;20031;-71
2024/03/09 08:45:20;;;;;;;9.38;1.20;;;;;;;;;;5090401;28;20024;-70
2024/03/09 08:47:45;;;;;;;1.70;1.20;;;;;;;;;;5094332;28;20016;-70
2024/03/09 08:50:11;;;;;;;2.15;1.48;;;;;;;;;;5073595;28;20431;-71
2024/03/09 08:52:37;;;;;;;2.80;1.10;;;;;;;;;;5082735;28;20040;-71
2024/03/09 08:55:03;;;;;;;4.90;1.13;;;;;;;;;;5111731;28;20059;-71
2024/03/09 08:57:29;;;;;;;4.35;1.13;;;;;;;;;;5105166;28;20054;-69
2024/03/09 08:59:59;;;;;;;2.63;1.23;;;;;;;;;;5090814;28;20054;-71
2024/03/09 09:02:27;;;;;;;4.28;1.63;;;;;;;;;;5091781;28;20028;-71
2024/03/09 09:04:53;;;;;;;2.97;1.70;;;;;;;;;;5095784;28;20036;-71
2024/03/09 09:07:19;;;;;;;4.68;1.30;;;;;;;;;;5105736;28;20070;-71
2024/03/09 09:09:44;;;;;;;2.00;1.30;;;;;;;;;;5105047;28;20358;-72
2024/03/09 09:12:10;;;;;;;2.08;1.15;;;;;;;;;;5095620;28;20020;-70
2024/03/09 09:14:36;;;;;;;1.55;0.93;;;;;;;;;;5094902;28;20031;-72
2024/03/09 09:17:06;;;;;;;11.10;1.40;;;;;;;;;;5094581;28;20024;-72
2024/03/09 09:19:32;;;;;;;5.53;1.55;;;;;;;;;;5095488;28;20084;-72
2024/03/09 09:21:57;;;;;;;5.95;1.30;;;;;;;;;;5104453;28;20028;-71
2024/03/09 09:24:23;;;;;;;2.58;1.25;;;;;;;;;;5115418;28;20083;-71
2024/03/09 09:26:50;;;;;;;7.65;1.70;;;;;;;;;;5108240;28;20027;-71
2024/03/09 09:29:15;;;;;;;3.45;1.40;;;;;;;;;;5096090;28;20035;-71
2024/03/09 09:31:41;;;;;;;2.80;1.08;;;;;;;;;;5095870;28;20028;-72
2024/03/09 09:34:10;;;;;;;2.30;1.08;;;;;;;;;;5077321;28;20024;-72
2024/03/09 09:36:36;;;;;;;1.95;1.10;;;;;;;;;;5101988;28;20042;-72
2024/03/09 09:39:01;;;;;;;6.80;1.30;;;;;;;;;;5115126;28;20446;-71
2024/03/09 09:41:29;;;;;;;4.15;0.80;;;;;;;;;;5115903;28;20092;-72
2024/03/09 09:43:58;;;;;;;4.68;0.77;;;;;;;;;;5114565;28;20023;-71
2024/03/09 09:46:25;;;;;;;3.05;0.82;;;;;;;;;;5111692;28;20016;-72
2024/03/09 09:48:52;;;;;;;1.42;0.90;;;;;;;;;;5094900;28;20052;-72
2024/03/09 09:51:20;;;;;;;0.80;0.60;;;;;;;;;;5102505;28;20018;-72
2024/03/09 09:53:49;;;;;;;4.03;0.98;;;;;;;;;;5114742;28;20039;-71
2024/03/09 09:56:14;;;;;;;2.92;0.98;;;;;;;;;;5115835;28;20020;-72
2024/03/09 09:58:40;;;;;;;3.83;0.80;;;;;;;;;;5112063;28;20019;-71
2024/03/09 10:01:05;;;;;;;3.90;1.45;;;;;;;;;;5100566;28;20042;-71
2024/03/09 10:03:34;;;;;;;4.68;1.55;;;;;;;;;;5093961;28;20020;-77
2024/03/09 10:05:59;;;;;;;2.42;1.30;;;;;;;;;;5084704;28;20019;-71
2024/03/09 10:08:26;;;;;;;3.33;1.02;;;;;;;;;;5079178;28;20029;-71
2024/03/09 10:10:52;;;;;;;7.22;1.00;;;;;;;;;;5073880;28;20028;-72
2024/03/09 10:13:18;;;;;;;5.15;1.23;;;;;;;;;;5074411;28;20051;-70
2024/03/09 10:15:45;;;;;;;1.88;0.88;;;;;;;;;;5073453;28;20090;-70
2024/03/09 10:18:12;;;;;;;2.92;1.60;;;;;;;;;;5057446;28;20032;-69
2024/03/09 10:20:38;;;;;;;1.92;1.08;;;;;;;;;;5084776;28;20032;-69
2024/03/09 10:23:12;;;;;;;4.05;1.30;;;;;;;;;;5093346;28;20031;-69
2024/03/09 10:25:38;;;;;;;1.60;0.90;;;;;;;;;;5097232;28;20024;-72
2024/03/09 10:28:05;;;;;;;1.45;0.85;;;;;;;;;;5093776;28;20063;-71
2024/03/09 10:30:31;;;;;;;3.03;0.90;;;;;;;;;;5093454;28;20020;-61
2024/03/09 10:32:57;;;;;;;1.45;0.80;;;;;;;;;;5092953;28;20381;-68
2024/03/09 10:35:23;;;;;;;2.78;1.10;;;;;;;;;;5075280;28;20025;-68
2024/03/09 10:37:55;;;;;;;3.05;1.50;;;;;;;;;;5093409;28;20023;-68
2024/03/09 10:40:25;;;;;;;2.55;1.55;;;;;;;;;;5075422;28;20043;-69
2024/03/09 10:42:52;;;;;;;4.68;1.55;;;;;;;;;;5092660;28;20066;-69
2024/03/09 10:45:22;;;;;;;3.67;0.95;;;;;;;;;;5093900;28;20030;-67
2024/03/09 10:47:52;;;;;;;3.08;0.98;;;;;;;;;;5092866;28;20030;-67
2024/03/09 10:50:25;;;;;;;3.80;1.00;;;;;;;;;;5097997;28;20028;-68
2024/03/09 10:53:04;;;;;;;2.08;1.13;;;;;;;;;;5094036;28;20063;-67
2024/03/09 10:55:34;;;;;;;5.78;1.45;;;;;;;;;;5093831;28;20039;-67
2024/03/09 10:58:03;;;;;;;3.58;1.10;;;;;;;;;;5093806;28;20430;-67
2024/03/09 11:00:28;;;;;;;7.45;1.02;;;;;;;;;;5092417;28;20032;-68
2024/03/09 11:02:55;;;;;;;1.48;0.90;;;;;;;;;;5093194;28;20086;-65
2024/03/09 11:05:22;;;;;;;5.15;0.80;;;;;;;;;;5109145;28;20020;-67
2024/03/09 11:07:50;;;;;;;6.05;1.77;;;;;;;;;;5114473;28;20092;-66
2024/03/09 11:10:17;;;;;;;2.05;0.80;;;;;;;;;;5096390;28;20042;-67
2024/03/09 11:12:43;;;;;;;10.00;1.02;;;;;;;;;;5112756;27;20023;-67
2024/03/09 11:15:08;;;;;;;1.27;0.85;;;;;;;;;;5095693;28;20024;-66
2024/03/09 11:17:35;;;;;;;2.42;0.90;;;;;;;;;;5093726;28;20020;-66
2024/03/09 11:20:00;;;;;;;2.35;1.00;;;;;;;;;;5107819;28;20058;-66
2024/03/09 11:22:45;;;;;;;2.13;1.02;;;;;;;;;;5113479;28;20415;-66
2024/03/09 11:25:12;;;;;;;3.67;1.17;;;;;;;;;;5113322;28;20426;-67
2024/03/09 11:27:44;;;;;;;5.53;1.02;;;;;;;;;;5113046;28;20056;-67
2024/03/09 11:30:12;;;;;;;1.40;0.80;;;;;;;;;;5113498;28;20020;-67
2024/03/09 11:32:40;;;;;;;3.40;0.80;;;;;;;;;;5111282;28;20020;-67
2024/03/09 11:35:26;;;;;;;1.58;1.00;;;;;;;;;;5097010;28;20031;-66
2024/03/09 11:37:51;;;;;;;2.15;1.30;;;;;;;;;;5094317;28;20057;-66
2024/03/09 11:40:18;;;;;;;4.32;1.30;;;;;;;;;;5092701;28;20043;-67
2024/03/09 11:42:44;;;;;;;2.47;1.00;;;;;;;;;;5093231;28;20032;-66
2024/03/09 11:45:11;;;;;;;3.25;1.38;;;;;;;;;;5092542;28;20107;-66
2024/03/09 11:47:37;;;;;;;4.18;1.17;;;;;;;;;;5092871;28;20069;-67
2024/03/09 11:50:02;;;;;;;7.50;1.08;;;;;;;;;;5092715;28;20394;-66
2024/03/09 11:52:31;;;;;;;1.90;0.80;;;;;;;;;;5113423;28;20130;-65
2024/03/09 11:55:02;;;;;;;1.92;1.20;;;;;;;;;;5113776;28;20120;-66
2024/03/09 11:57:31;;;;;;;2.85;0.82;;;;;;;;;;5111754;28;20023;-66
2024/03/09 11:59:57;;;;;;;1.77;0.98;;;;;;;;;;5112997;28;20019;-64
2024/03/09 12:02:23;;;;;;;2.80;0.80;;;;;;;;;;5109184;28;20449;-67
2024/03/09 12:04:48;;;;;;;2.88;0.90;;;;;;;;;;5092243;28;20028;-74
2024/03/09 12:07:15;;;;;;;3.95;0.80;;;;;;;;;;5092570;28;20084;-67
2024/03/09 12:09:54;;;;;;;2.20;0.98;;;;;;;;;;5091903;28;20020;-68
2024/03/09 12:12:19;;;;;;;2.45;0.68;;;;;;;;;;5089193;28;20035;-74
2024/03/09 12:14:46;;;;;;;2.38;1.05;;;;;;;;;;5091517;28;20024;-70
2024/03/09 12:17:12;;;;;;;4.63;1.00;;;;;;;;;;5074503;28;20023;-71
2024/03/09 12:19:39;;;;;;;2.15;0.98;;;;;;;;;;5090806;28;20020;-68
2024/03/09 12:22:04;;;;;;;4.50;1.10;;;;;;;;;;5092074;28;20032;-70
2024/03/09 12:24:30;;;;;;;3.20;1.20;;;;;;;;;;5092375;28;20024;-67
2024/03/09 12:26:55;;;;;;;1.80;1.10;;;;;;;;;;5092593;28;20012;-74
2024/03/09 12:29:21;;;;;;;6.93;2.20;;;;;;;;;;5090589;28;20062;-75
2024/03/09 12:31:48;;;;;;;4.35;1.10;;;;;;;;;;5096427;28;20054;-71
2024/03/09 12:34:14;;;;;;;1.92;0.95;;;;;;;;;;5091300;28;20055;-71
2024/03/09 12:36:52;;;;;;;2.42;1.08;;;;;;;;;;5090632;28;20323;-72
2024/03/09 12:39:18;;;;;;;3.58;1.00;;;;;;;;;;5090600;28;20032;-74
2024/03/09 12:41:50;;;;;;;2.95;1.00;;;;;;;;;;5072935;28;20027;-72
2024/03/09 12:44:16;;;;;;;6.07;1.00;;;;;;;;;;5090803;28;20085;-71
2024/03/09 12:46:43;;;;;;;3.00;1.20;;;;;;;;;;5095350;28;20350;-72
2024/03/09 12:49:12;;;;;;;3.13;1.30;;;;;;;;;;5094047;28;20027;-75
2024/03/09 12:51:39;;;;;;;2.33;1.20;;;;;;;;;;5103534;28;20058;-76
2024/03/09 12:54:12;;;;;;;3.05;1.20;;;;;;;;;;5090711;28;20032;-73
2024/03/09 12:56:39;;;;;;;4.88;1.25;;;;;;;;;;5073929;28;20024;-74
2024/03/09 12:59:08;;;;;;;1.73;1.05;;;;;;;;;;5074340;28;20030;-74
2024/03/09 13:01:36;;;;;;;3.83;0.90;;;;;;;;;;5096625;28;20119;-72
2024/03/09 13:04:07;;;;;;;3.65;1.10;;;;;;;;;;5112139;28;20418;-72
2024/03/09 13:06:37;;;;;;;6.80;1.23;;;;;;;;;;5111944;28;20052;-71
2024/03/09 13:09:06;;;;;;;8.90;1.67;;;;;;;;;;5111415;28;20015;-71
2024/03/09 13:11:32;;;;;;;4.57;0.77;;;;;;;;;;5110988;28;20496;-70
2024/03/09 13:13:58;;;;;;;2.78;0.98;;;;;;;;;;5112827;28;20020;-72
2024/03/09 13:16:23;;;;;;;3.78;1.20;;;;;;;;;;5099721;28;20027;-71
2024/03/09 13:18:52;;;;;;;8.88;1.73;;;;;;;;;;5073828;28;20047;-71
2024/03/09 13:21:20;;;;;;;6.70;1.40;;;;;;;;;;5092365;28;20331;-71
2024/03/09 13:23:46;;;;;;;2.30;1.10;;;;;;;;;;5090899;28;20027;-73
2024/03/09 13:26:14;;;;;;;3.03;1.55;;;;;;;;;;5091509;28;20016;-70
2024/03/09 13:28:40;;;;;;;5.72;1.20;;;;;;;;;;5112238;28;20019;-72
2024/03/09 13:31:06;;;;;;;2.83;1.02;;;;;;;;;;5080510;28;20025;-71
2024/03/09 13:33:41;;;;;;;2.80;1.13;;;;;;;;;;5070741;28;20443;-72
2024/03/09 13:36:08;;;;;;;1.50;0.65;;;;;;;;;;5074055;28;20029;-73
2024/03/09 13:38:33;;;;;;;1.17;0.60;;;;;;;;;;5054243;28;20024;-72
2024/03/09 13:40:59;;;;;;;3.92;0.85;;;;;;;;;;5072075;28;20039;-72
2024/03/09 13:43:25;;;;;;;1.23;0.63;;;;;;;;;;5102905;28;20020;-73
2024/03/09 13:45:51;;;;;;;0.93;0.60;;;;;;;;;;5082564;28;20239;-72
2024/03/09 13:48:18;;;;;;;3.20;0.77;;;;;;;;;;5074754;28;20016;-68
2024/03/09 13:50:44;;;;;;;1.35;0.60;;;;;;;;;;5094891;28;20089;-72
2024/03/09 13:53:09;;;;;;;1.80;0.80;;;;;;;;;;5095089;28;20450;-73
2024/03/09 13:55:35;;;;;;;2.58;0.98;;;;;;;;;;5098737;28;20042;-68
2024/03/09 13:58:02;;;;;;;3.28;1.00;;;;;;;;;;5095798;28;20028;-74
2024/03/09 14:00:30;;;;;;;2.47;1.15;;;;;;;;;;5087109;28;20111;-76
2024/03/09 14:02:57;;;;;;;1.02;0.73;;;;;;;;;;5114097;28;20090;-73
2024/03/09 14:05:24;;;;;;;4.20;1.38;;;;;;;;;;5115449;28;20031;-74
2024/03/09 14:07:56;;;;;;;7.80;1.42;;;;;;;;;;5115480;28;20055;-74
2024/03/09 14:10:34;;;;;;;7.25;1.45;;;;;;;;;;5087211;28;20612;-72
2024/03/09 14:13:07;;;;;;;5.43;1.45;;;;;;;;;;5093960;28;20121;-74
2024/03/09 14:15:36;;;;;;;3.20;1.08;;;;;;;;;;5097337;28;20031;-67
2024/03/09 14:18:02;;;;;;;7.97;1.92;;;;;;;;;;5095134;28;20031;-75
2024/03/09 14:20:28;;;;;;;3.00;1.30;;;;;;;;;;5095232;28;20082;-73
2024/03/09 14:22:53;;;;;;;13.90;1.70;;;;;;;;;;5111123;28;20439;-73
2024/03/09 14:25:24;;;;;;;6.13;1.48;;;;;;;;;;5114212;28;20374;-74
2024/03/09 14:27:49;;;;;;;6.28;1.27;;;;;;;;;;5114326;28;20030;-72
2024/03/09 14:30:21;;;;;;;5.25;1.50;;;;;;;;;;5098397;28;20020;-73
2024/03/09 14:32:46;;;;;;;3.75;1.10;;;;;;;;;;5107241;28;20035;-74
2024/03/09 14:35:15;;;;;;;2.67;1.35;;;;;;;;;;5114156;28;20028;-74
2024/03/09 14:37:43;;;;;;;2.90;1.10;;;;;;;;;;5114314;28;20024;-75
2024/03/09 14:40:15;;;;;;;3.60;1.10;;;;;;;;;;5113781;28;20024;-74
2024/03/09 14:42:51;;;;;;;2.67;0.98;;;;;;;;;;5097231;28;20024;-73